Hovedside
METAR-TAF:

METAR-TAF

Lufthavner :

Mexico by, Mexico

Mexico by internasjonale lufthavn

breddegrad: 19-26N, lengdegrad: 099-06W, høyde over havet: 2238 m

Gjeldene værobservasjon

Denne rapporten ble laget for 38 minutter siden, klokken 21:47 UTC
Vind 10 kt fra Øst-sørøst
Temperatur 23°C
Luftfuktighet 25%
Trykk 1021 hPa
Sikt: 12.9 km
Få skyer i en høyde av 2000 ft
Spredte skyer i en høyde av 20000 ft

METAR: MMMX 212147Z 12010KT 8SM FEW020 SCT200 23/02 A3016 NOSIG RMK 8/102 HZY

Tid: 16:25 (22:25 UTC)

Varsel

Denne rapporten ble laget for 6 timer og 6 minutter siden, klokken 16:19 UTC
Varsel gyldig fra 21. klokken 18 UTC til 22. klokken 24 UTC
Vind 12 kt fra Sørvest
Sikt: 10 km
Spredte skyer i en høyde av 3000 ft
Blir
fra 22. klokken 02 UTC til 22. klokken 03 UTC
Vind kt fra Nord
Fra 22. klokken 1600 UTC
Vind 10 kt fra Øst
Sikt: 10 km
Spredte skyer i en høyde av 2000 ft

TAF: MMMX 211619Z 2118/2224 22012KT P6SM SCT030 TX22/2120Z TN08/2212Z BECMG 2202/2203 00000KT FM221600 08010KT P6SM SCT020

Værobservasjoner og værvarsel for over 4000 flyplasser (METAR- og TAF-rapporter).

Tilgjengelige stasjoner er representert av de røde og gule prikkene på kartet.

Hold musepekeren over prikken for å se navnet på stasjonen.

Klikk så for å se værobservasjoner og -varsler.

For å forandre kartet kan du klikke på den grønne knappen med svart kryss for å zoome inn, på den grønne knappen med strek for å zoome ut, eller på de grønne pilene for å se tilstøtende kart.


METAR-TAF: